This is the latest recevied weather packets stored in our database for station/object EA4IAJ-12. If no packets are shown the sender has not sent any weather packets the latest 10 day(s).
| Time | Temp. | Humidity | Pressure | Rain* | Wind** | Luminosity | Snow |
|---|---|---|---|---|---|---|---|
| 1777739418 | 17.22° C | 100% | 1017.8 hPa | - | - | - | - |
| 1777738518 | 17.78° C | 100% | 1021 hPa | - | - | - | - |
| 1777737617 | 18.33° C | 100% | 1022.8 hPa | - | - | - | - |
| 1777736729 | 19.44° C | 100% | 1027.7 hPa | - | - | - | - |
| 1777735828 | 18.89° C | 100% | 1024.9 hPa | - | - | - | - |
| 1777734928 | 21.11° C | 100% | 1034.3 hPa | - | - | - | - |
| 1777734028 | 24.44° C | 100% | 1048.9 hPa | - | - | - | - |
| 1777733127 | 24.44° C | 100% | 1050.1 hPa | - | - | - | - |
| 1777732226 | 22.78° C | 100% | 1042.8 hPa | - | - | - | - |
| 1777731326 | 24.44° C | 100% | 1050.1 hPa | - | - | - | - |
| 1777730426 | 23.89° C | 100% | 1048.1 hPa | - | - | - | - |
| 1777729525 | 23.33° C | 100% | 1047.2 hPa | - | - | - | - |
| 1777728624 | 21.11° C | 100% | 1036.1 hPa | - | - | - | - |
| 1777727723 | 21.11° C | 100% | 1036.7 hPa | - | - | - | - |
| 1777726823 | 21.11° C | 100% | 1037.2 hPa | - | - | - | - |
| 1777725922 | 18.89° C | 100% | 1026.3 hPa | - | - | - | - |
| 1777725022 | 16.11° C | 100% | 1016.7 hPa | - | - | - | - |
| 1777723221 | 20.56° C | 100% | 1034.9 hPa | - | - | - | - |
| 1777722320 | 22.22° C | 100% | 1042.9 hPa | - | - | - | - |
| 1777721420 | 21.11° C | 100% | 1037.4 hPa | - | - | - | - |
| 1777720519 | 20° C | 100% | 1033.5 hPa | - | - | - | - |
| 1777719619 | 19.44° C | 100% | 1031.7 hPa | - | - | - | - |
| 1777718718 | 17.78° C | 100% | 1024.3 hPa | - | - | - | - |
| 1777717818 | 18.33° C | 100% | 1026.7 hPa | - | - | - | - |
| 1777716017 | 18.33° C | 100% | 1025.6 hPa | - | - | - | - |
* Rain since midnight (hover to see other rain measurements)
** Current wind speed in m/s (hover to see current wind gust speed)